sensor_id;sensor_type;location;lat;lon;timestamp;P1;durP1;ratioP1;P2;durP2;ratioP2
50417;SDS011;36346;48.280;14.292;2022-12-29T00:01:18;31.06;;;30.92;;
50417;SDS011;36346;48.280;14.292;2022-12-29T00:04:12;31.87;;;31.75;;
50417;SDS011;36346;48.280;14.292;2022-12-29T00:06:44;31.66;;;31.54;;
50417;SDS011;36346;48.280;14.292;2022-12-29T00:09:13;31.27;;;31.22;;
50417;SDS011;36346;48.280;14.292;2022-12-29T00:11:45;30.31;;;30.20;;
50417;SDS011;36346;48.280;14.292;2022-12-29T00:14:13;30.77;;;30.51;;
50417;SDS011;36346;48.280;14.292;2022-12-29T00:17:24;29.41;;;29.31;;
50417;SDS011;36346;48.280;14.292;2022-12-29T00:19:55;29.93;;;29.91;;
50417;SDS011;36346;48.280;14.292;2022-12-29T00:22:44;29.50;;;29.41;;
50417;SDS011;36346;48.280;14.292;2022-12-29T00:25:55;29.65;;;29.52;;
50417;SDS011;36346;48.280;14.292;2022-12-29T00:29:22;30.03;;;29.88;;
50417;SDS011;36346;48.280;14.292;2022-12-29T00:32:32;30.21;;;30.08;;
50417;SDS011;36346;48.280;14.292;2022-12-29T00:35:29;30.17;;;30.05;;
50417;SDS011;36346;48.280;14.292;2022-12-29T00:38:25;29.91;;;29.86;;
50417;SDS011;36346;48.280;14.292;2022-12-29T00:41:38;30.09;;;29.87;;
50417;SDS011;36346;48.280;14.292;2022-12-29T00:44:24;30.16;;;30.05;;
50417;SDS011;36346;48.280;14.292;2022-12-29T00:46:52;30.48;;;30.36;;
50417;SDS011;36346;48.280;14.292;2022-12-29T00:49:21;30.26;;;30.01;;
50417;SDS011;36346;48.280;14.292;2022-12-29T00:52:02;31.27;;;31.08;;
50417;SDS011;36346;48.280;14.292;2022-12-29T00:54:34;32.30;;;32.11;;
50417;SDS011;36346;48.280;14.292;2022-12-29T00:57:04;31.07;;;30.88;;
50417;SDS011;36346;48.280;14.292;2022-12-29T00:59:34;31.22;;;31.10;;
50417;SDS011;36346;48.280;14.292;2022-12-29T01:02:06;30.44;;;30.28;;
50417;SDS011;36346;48.280;14.292;2022-12-29T01:04:34;31.87;;;31.55;;
50417;SDS011;36346;48.280;14.292;2022-12-29T01:07:02;31.34;;;31.15;;
50417;SDS011;36346;48.280;14.292;2022-12-29T01:09:31;31.74;;;31.50;;
50417;SDS011;36346;48.280;14.292;2022-12-29T01:12:18;31.86;;;31.66;;
50417;SDS011;36346;48.280;14.292;2022-12-29T01:15:08;31.39;;;31.28;;
50417;SDS011;36346;48.280;14.292;2022-12-29T01:17:38;30.39;;;30.31;;
50417;SDS011;36346;48.280;14.292;2022-12-29T01:20:06;29.70;;;29.59;;
50417;SDS011;36346;48.280;14.292;2022-12-29T01:22:35;29.82;;;29.61;;
50417;SDS011;36346;48.280;14.292;2022-12-29T01:25:28;28.48;;;28.31;;
50417;SDS011;36346;48.280;14.292;2022-12-29T01:27:59;28.64;;;28.39;;
50417;SDS011;36346;48.280;14.292;2022-12-29T01:30:28;27.88;;;27.73;;
50417;SDS011;36346;48.280;14.292;2022-12-29T01:32:56;28.04;;;27.90;;
50417;SDS011;36346;48.280;14.292;2022-12-29T01:35:24;26.81;;;26.64;;
50417;SDS011;36346;48.280;14.292;2022-12-29T01:37:52;26.12;;;25.99;;
50417;SDS011;36346;48.280;14.292;2022-12-29T01:40:21;25.93;;;25.85;;
50417;SDS011;36346;48.280;14.292;2022-12-29T01:42:49;26.78;;;26.73;;
50417;SDS011;36346;48.280;14.292;2022-12-29T01:45:17;25.71;;;25.64;;
50417;SDS011;36346;48.280;14.292;2022-12-29T01:47:48;26.08;;;25.99;;
50417;SDS011;36346;48.280;14.292;2022-12-29T01:50:25;25.60;;;25.49;;
50417;SDS011;36346;48.280;14.292;2022-12-29T01:53:11;24.92;;;24.82;;
50417;SDS011;36346;48.280;14.292;2022-12-29T01:56:04;25.58;;;25.43;;
50417;SDS011;36346;48.280;14.292;2022-12-29T01:58:37;26.12;;;26.02;;
50417;SDS011;36346;48.280;14.292;2022-12-29T02:01:09;25.96;;;25.85;;
50417;SDS011;36346;48.280;14.292;2022-12-29T02:03:38;25.18;;;25.11;;
50417;SDS011;36346;48.280;14.292;2022-12-29T02:09:18;25.41;;;25.26;;
50417;SDS011;36346;48.280;14.292;2022-12-29T02:11:50;25.12;;;24.97;;
50417;SDS011;36346;48.280;14.292;2022-12-29T02:14:23;25.65;;;25.61;;
50417;SDS011;36346;48.280;14.292;2022-12-29T02:16:57;25.42;;;25.33;;
50417;SDS011;36346;48.280;14.292;2022-12-29T02:39:23;23.80;;;23.70;;
50417;SDS011;36346;48.280;14.292;2022-12-29T02:44:52;24.03;;;23.98;;
50417;SDS011;36346;48.280;14.292;2022-12-29T02:50:17;24.15;;;24.10;;
50417;SDS011;36346;48.280;14.292;2022-12-29T02:52:59;23.98;;;23.92;;
50417;SDS011;36346;48.280;14.292;2022-12-29T02:55:31;23.58;;;23.55;;
50417;SDS011;36346;48.280;14.292;2022-12-29T02:58:34;23.78;;;23.69;;
50417;SDS011;36346;48.280;14.292;2022-12-29T03:04:03;24.05;;;23.98;;
50417;SDS011;36346;48.280;14.292;2022-12-29T03:12:29;23.33;;;23.27;;
50417;SDS011;36346;48.280;14.292;2022-12-29T03:15:23;22.89;;;22.84;;
50417;SDS011;36346;48.280;14.292;2022-12-29T03:18:21;23.38;;;23.30;;
50417;SDS011;36346;48.280;14.292;2022-12-29T03:21:16;23.53;;;23.43;;
50417;SDS011;36346;48.280;14.292;2022-12-29T03:24:19;23.71;;;23.57;;
50417;SDS011;36346;48.280;14.292;2022-12-29T03:26:53;23.50;;;23.46;;
50417;SDS011;36346;48.280;14.292;2022-12-29T03:29:50;23.36;;;23.36;;
50417;SDS011;36346;48.280;14.292;2022-12-29T03:32:28;23.36;;;23.22;;
50417;SDS011;36346;48.280;14.292;2022-12-29T03:35:04;24.19;;;24.04;;
50417;SDS011;36346;48.280;14.292;2022-12-29T03:37:37;23.76;;;23.65;;
50417;SDS011;36346;48.280;14.292;2022-12-29T03:40:09;23.93;;;23.76;;
50417;SDS011;36346;48.280;14.292;2022-12-29T03:42:41;24.50;;;24.37;;
50417;SDS011;36346;48.280;14.292;2022-12-29T03:45:11;24.26;;;24.18;;
50417;SDS011;36346;48.280;14.292;2022-12-29T03:47:40;24.16;;;24.07;;
50417;SDS011;36346;48.280;14.292;2022-12-29T03:50:08;23.42;;;23.38;;
50417;SDS011;36346;48.280;14.292;2022-12-29T03:52:39;23.85;;;23.81;;
50417;SDS011;36346;48.280;14.292;2022-12-29T03:55:07;23.52;;;23.52;;
50417;SDS011;36346;48.280;14.292;2022-12-29T03:57:36;24.37;;;24.34;;
50417;SDS011;36346;48.280;14.292;2022-12-29T04:00:07;23.64;;;23.62;;
50417;SDS011;36346;48.280;14.292;2022-12-29T04:02:46;23.85;;;23.81;;
50417;SDS011;36346;48.280;14.292;2022-12-29T04:05:20;23.75;;;23.70;;
50417;SDS011;36346;48.280;14.292;2022-12-29T04:07:52;22.48;;;22.43;;
50417;SDS011;36346;48.280;14.292;2022-12-29T04:10:20;23.56;;;23.52;;
50417;SDS011;36346;48.280;14.292;2022-12-29T04:12:51;22.89;;;22.89;;
50417;SDS011;36346;48.280;14.292;2022-12-29T04:15:19;23.21;;;23.20;;
50417;SDS011;36346;48.280;14.292;2022-12-29T04:17:48;22.82;;;22.81;;
50417;SDS011;36346;48.280;14.292;2022-12-29T04:20:17;22.79;;;22.78;;
50417;SDS011;36346;48.280;14.292;2022-12-29T04:23:06;22.81;;;22.78;;
50417;SDS011;36346;48.280;14.292;2022-12-29T04:25:37;23.48;;;23.41;;
50417;SDS011;36346;48.280;14.292;2022-12-29T04:28:08;23.07;;;23.01;;
50417;SDS011;36346;48.280;14.292;2022-12-29T04:30:49;23.26;;;23.21;;
50417;SDS011;36346;48.280;14.292;2022-12-29T04:33:23;23.32;;;23.30;;
50417;SDS011;36346;48.280;14.292;2022-12-29T04:35:53;23.50;;;23.44;;
50417;SDS011;36346;48.280;14.292;2022-12-29T04:38:23;24.01;;;23.96;;
50417;SDS011;36346;48.280;14.292;2022-12-29T04:40:52;23.56;;;23.46;;
50417;SDS011;36346;48.280;14.292;2022-12-29T04:43:23;23.34;;;23.21;;
50417;SDS011;36346;48.280;14.292;2022-12-29T04:46:07;23.35;;;23.30;;
50417;SDS011;36346;48.280;14.292;2022-12-29T04:48:49;23.05;;;23.01;;
50417;SDS011;36346;48.280;14.292;2022-12-29T04:51:52;23.91;;;23.89;;
50417;SDS011;36346;48.280;14.292;2022-12-29T04:54:23;23.91;;;23.83;;
50417;SDS011;36346;48.280;14.292;2022-12-29T04:56:58;25.73;;;25.70;;
50417;SDS011;36346;48.280;14.292;2022-12-29T04:59:26;25.34;;;25.28;;
50417;SDS011;36346;48.280;14.292;2022-12-29T05:01:57;24.12;;;24.09;;
50417;SDS011;36346;48.280;14.292;2022-12-29T05:04:25;23.35;;;23.30;;
50417;SDS011;36346;48.280;14.292;2022-12-29T05:06:53;23.15;;;23.14;;
50417;SDS011;36346;48.280;14.292;2022-12-29T05:09:21;23.71;;;23.69;;
50417;SDS011;36346;48.280;14.292;2022-12-29T05:11:51;23.45;;;23.43;;
50417;SDS011;36346;48.280;14.292;2022-12-29T05:14:19;22.82;;;22.80;;
50417;SDS011;36346;48.280;14.292;2022-12-29T05:16:47;24.19;;;24.14;;
50417;SDS011;36346;48.280;14.292;2022-12-29T05:19:17;24.88;;;24.76;;
50417;SDS011;36346;48.280;14.292;2022-12-29T05:21:45;24.73;;;24.70;;
50417;SDS011;36346;48.280;14.292;2022-12-29T05:24:13;24.41;;;24.37;;
50417;SDS011;36346;48.280;14.292;2022-12-29T05:26:43;24.78;;;24.73;;
50417;SDS011;36346;48.280;14.292;2022-12-29T05:29:29;25.98;;;25.89;;
50417;SDS011;36346;48.280;14.292;2022-12-29T05:31:58;26.13;;;26.08;;
50417;SDS011;36346;48.280;14.292;2022-12-29T05:34:26;24.32;;;24.31;;
50417;SDS011;36346;48.280;14.292;2022-12-29T05:36:55;24.96;;;24.90;;
50417;SDS011;36346;48.280;14.292;2022-12-29T05:39:24;24.50;;;24.48;;
50417;SDS011;36346;48.280;14.292;2022-12-29T05:41:56;23.94;;;23.92;;
50417;SDS011;36346;48.280;14.292;2022-12-29T05:44:36;23.97;;;23.92;;
50417;SDS011;36346;48.280;14.292;2022-12-29T05:47:15;24.97;;;24.88;;
50417;SDS011;36346;48.280;14.292;2022-12-29T05:50:02;25.05;;;24.99;;
50417;SDS011;36346;48.280;14.292;2022-12-29T05:52:50;24.52;;;24.48;;
50417;SDS011;36346;48.280;14.292;2022-12-29T05:55:19;25.19;;;25.18;;
50417;SDS011;36346;48.280;14.292;2022-12-29T05:57:49;23.11;;;23.09;;
50417;SDS011;36346;48.280;14.292;2022-12-29T06:00:17;23.52;;;23.50;;
50417;SDS011;36346;48.280;14.292;2022-12-29T06:02:46;24.81;;;24.78;;
50417;SDS011;36346;48.280;14.292;2022-12-29T06:05:16;25.53;;;25.43;;
50417;SDS011;36346;48.280;14.292;2022-12-29T06:07:45;24.18;;;24.11;;
50417;SDS011;36346;48.280;14.292;2022-12-29T06:10:16;23.64;;;23.62;;
50417;SDS011;36346;48.280;14.292;2022-12-29T06:12:58;22.92;;;22.90;;
50417;SDS011;36346;48.280;14.292;2022-12-29T06:15:26;22.73;;;22.70;;
50417;SDS011;36346;48.280;14.292;2022-12-29T06:17:54;22.77;;;22.70;;
50417;SDS011;36346;48.280;14.292;2022-12-29T06:20:23;22.59;;;22.52;;
50417;SDS011;36346;48.280;14.292;2022-12-29T06:22:52;22.87;;;22.77;;
50417;SDS011;36346;48.280;14.292;2022-12-29T06:25:20;22.82;;;22.67;;
50417;SDS011;36346;48.280;14.292;2022-12-29T06:27:48;23.24;;;23.16;;
50417;SDS011;36346;48.280;14.292;2022-12-29T06:30:16;22.84;;;22.64;;
50417;SDS011;36346;48.280;14.292;2022-12-29T06:32:44;21.81;;;21.76;;
50417;SDS011;36346;48.280;14.292;2022-12-29T06:35:14;22.10;;;22.06;;
50417;SDS011;36346;48.280;14.292;2022-12-29T06:37:48;22.29;;;22.27;;
50417;SDS011;36346;48.280;14.292;2022-12-29T06:40:17;22.01;;;21.98;;
50417;SDS011;36346;48.280;14.292;2022-12-29T06:43:05;22.15;;;22.07;;
50417;SDS011;36346;48.280;14.292;2022-12-29T06:45:54;22.12;;;22.06;;
50417;SDS011;36346;48.280;14.292;2022-12-29T06:48:22;21.71;;;21.70;;
50417;SDS011;36346;48.280;14.292;2022-12-29T06:50:50;22.64;;;22.64;;
50417;SDS011;36346;48.280;14.292;2022-12-29T06:53:18;22.28;;;22.25;;
50417;SDS011;36346;48.280;14.292;2022-12-29T06:55:46;23.12;;;23.08;;
50417;SDS011;36346;48.280;14.292;2022-12-29T06:58:14;22.42;;;22.38;;
50417;SDS011;36346;48.280;14.292;2022-12-29T07:00:42;22.46;;;22.44;;
50417;SDS011;36346;48.280;14.292;2022-12-29T07:03:09;22.61;;;22.59;;
50417;SDS011;36346;48.280;14.292;2022-12-29T07:05:37;22.01;;;21.99;;
50417;SDS011;36346;48.280;14.292;2022-12-29T07:08:05;22.86;;;22.83;;
50417;SDS011;36346;48.280;14.292;2022-12-29T07:10:34;22.21;;;22.17;;
50417;SDS011;36346;48.280;14.292;2022-12-29T07:13:02;22.29;;;22.23;;
50417;SDS011;36346;48.280;14.292;2022-12-29T07:15:31;22.34;;;22.30;;
50417;SDS011;36346;48.280;14.292;2022-12-29T07:17:59;21.92;;;21.87;;
50417;SDS011;36346;48.280;14.292;2022-12-29T07:20:26;21.51;;;21.49;;
50417;SDS011;36346;48.280;14.292;2022-12-29T07:22:54;21.77;;;21.76;;
50417;SDS011;36346;48.280;14.292;2022-12-29T07:25:23;21.11;;;21.07;;
50417;SDS011;36346;48.280;14.292;2022-12-29T07:27:51;22.72;;;22.70;;
50417;SDS011;36346;48.280;14.292;2022-12-29T07:30:19;22.01;;;22.00;;
50417;SDS011;36346;48.280;14.292;2022-12-29T07:32:47;22.18;;;22.18;;
50417;SDS011;36346;48.280;14.292;2022-12-29T07:35:15;22.28;;;22.24;;
50417;SDS011;36346;48.280;14.292;2022-12-29T07:37:44;25.19;;;25.18;;
50417;SDS011;36346;48.280;14.292;2022-12-29T07:40:11;26.15;;;26.10;;
50417;SDS011;36346;48.280;14.292;2022-12-29T07:42:40;27.66;;;27.56;;
50417;SDS011;36346;48.280;14.292;2022-12-29T07:45:09;27.62;;;27.56;;
50417;SDS011;36346;48.280;14.292;2022-12-29T07:47:48;27.69;;;27.69;;
50417;SDS011;36346;48.280;14.292;2022-12-29T07:50:17;25.53;;;25.51;;
50417;SDS011;36346;48.280;14.292;2022-12-29T07:52:45;26.93;;;26.87;;
50417;SDS011;36346;48.280;14.292;2022-12-29T07:55:14;27.66;;;27.55;;
50417;SDS011;36346;48.280;14.292;2022-12-29T07:57:44;26.01;;;26.00;;
50417;SDS011;36346;48.280;14.292;2022-12-29T08:00:12;26.36;;;26.32;;
50417;SDS011;36346;48.280;14.292;2022-12-29T08:02:40;26.46;;;26.40;;
50417;SDS011;36346;48.280;14.292;2022-12-29T08:05:08;25.95;;;25.92;;
50417;SDS011;36346;48.280;14.292;2022-12-29T08:07:36;25.75;;;25.69;;
50417;SDS011;36346;48.280;14.292;2022-12-29T08:10:04;24.64;;;24.59;;
50417;SDS011;36346;48.280;14.292;2022-12-29T08:12:33;23.54;;;23.52;;
50417;SDS011;36346;48.280;14.292;2022-12-29T08:15:00;22.43;;;22.41;;
50417;SDS011;36346;48.280;14.292;2022-12-29T08:17:29;22.79;;;22.78;;
50417;SDS011;36346;48.280;14.292;2022-12-29T08:19:57;21.55;;;21.51;;
50417;SDS011;36346;48.280;14.292;2022-12-29T08:22:25;21.57;;;21.55;;
50417;SDS011;36346;48.280;14.292;2022-12-29T08:24:53;20.65;;;20.63;;
50417;SDS011;36346;48.280;14.292;2022-12-29T08:27:21;19.03;;;19.02;;
50417;SDS011;36346;48.280;14.292;2022-12-29T08:29:49;19.82;;;19.79;;
50417;SDS011;36346;48.280;14.292;2022-12-29T08:32:17;20.50;;;20.40;;
50417;SDS011;36346;48.280;14.292;2022-12-29T08:34:46;18.94;;;18.89;;
50417;SDS011;36346;48.280;14.292;2022-12-29T08:37:14;19.01;;;18.97;;
50417;SDS011;36346;48.280;14.292;2022-12-29T08:39:42;20.48;;;20.42;;
50417;SDS011;36346;48.280;14.292;2022-12-29T08:42:09;23.68;;;23.55;;
50417;SDS011;36346;48.280;14.292;2022-12-29T08:44:37;22.49;;;22.36;;
50417;SDS011;36346;48.280;14.292;2022-12-29T08:47:05;21.91;;;21.81;;
50417;SDS011;36346;48.280;14.292;2022-12-29T08:49:34;22.01;;;21.98;;
50417;SDS011;36346;48.280;14.292;2022-12-29T08:52:02;21.56;;;21.54;;
50417;SDS011;36346;48.280;14.292;2022-12-29T08:54:30;22.81;;;22.78;;
50417;SDS011;36346;48.280;14.292;2022-12-29T08:56:58;23.97;;;23.90;;
50417;SDS011;36346;48.280;14.292;2022-12-29T08:59:34;27.13;;;27.05;;
50417;SDS011;36346;48.280;14.292;2022-12-29T09:02:02;26.13;;;26.07;;
50417;SDS011;36346;48.280;14.292;2022-12-29T09:04:54;25.77;;;25.77;;
50417;SDS011;36346;48.280;14.292;2022-12-29T09:07:24;26.92;;;26.89;;
50417;SDS011;36346;48.280;14.292;2022-12-29T09:09:53;25.38;;;25.36;;
50417;SDS011;36346;48.280;14.292;2022-12-29T09:12:21;26.28;;;26.21;;
50417;SDS011;36346;48.280;14.292;2022-12-29T09:15:15;27.41;;;27.34;;
50417;SDS011;36346;48.280;14.292;2022-12-29T09:17:43;28.91;;;28.82;;
50417;SDS011;36346;48.280;14.292;2022-12-29T09:20:17;28.51;;;28.51;;
50417;SDS011;36346;48.280;14.292;2022-12-29T09:23:11;28.77;;;28.56;;
50417;SDS011;36346;48.280;14.292;2022-12-29T09:25:40;28.15;;;28.09;;
50417;SDS011;36346;48.280;14.292;2022-12-29T09:28:10;27.65;;;27.62;;
50417;SDS011;36346;48.280;14.292;2022-12-29T09:30:39;24.52;;;24.50;;
50417;SDS011;36346;48.280;14.292;2022-12-29T09:33:07;25.56;;;25.52;;
50417;SDS011;36346;48.280;14.292;2022-12-29T09:35:35;26.69;;;26.54;;
50417;SDS011;36346;48.280;14.292;2022-12-29T09:38:03;29.61;;;29.50;;
50417;SDS011;36346;48.280;14.292;2022-12-29T09:40:32;28.20;;;28.09;;
50417;SDS011;36346;48.280;14.292;2022-12-29T09:43:24;27.89;;;27.80;;
50417;SDS011;36346;48.280;14.292;2022-12-29T09:46:02;28.48;;;28.47;;
50417;SDS011;36346;48.280;14.292;2022-12-29T09:48:45;28.17;;;28.08;;
50417;SDS011;36346;48.280;14.292;2022-12-29T09:51:19;28.11;;;28.04;;
50417;SDS011;36346;48.280;14.292;2022-12-29T09:53:57;26.22;;;26.17;;
50417;SDS011;36346;48.280;14.292;2022-12-29T09:56:28;25.12;;;25.08;;
50417;SDS011;36346;48.280;14.292;2022-12-29T09:59:02;22.42;;;22.41;;
50417;SDS011;36346;48.280;14.292;2022-12-29T10:01:46;21.59;;;21.55;;
50417;SDS011;36346;48.280;14.292;2022-12-29T10:04:40;20.34;;;20.33;;
50417;SDS011;36346;48.280;14.292;2022-12-29T10:12:54;17.28;;;17.25;;
50417;SDS011;36346;48.280;14.292;2022-12-29T10:24:04;15.53;;;15.47;;
50417;SDS011;36346;48.280;14.292;2022-12-29T10:27:04;14.82;;;14.78;;
50417;SDS011;36346;48.280;14.292;2022-12-29T10:29:40;15.18;;;15.11;;
50417;SDS011;36346;48.280;14.292;2022-12-29T10:34:58;15.30;;;15.29;;
50417;SDS011;36346;48.280;14.292;2022-12-29T10:40:47;16.54;;;16.53;;
50417;SDS011;36346;48.280;14.292;2022-12-29T10:46:09;16.12;;;16.12;;
50417;SDS011;36346;48.280;14.292;2022-12-29T10:48:44;15.91;;;15.90;;
50417;SDS011;36346;48.280;14.292;2022-12-29T10:51:37;16.16;;;16.15;;
50417;SDS011;36346;48.280;14.292;2022-12-29T10:59:58;17.44;;;17.37;;
50417;SDS011;36346;48.280;14.292;2022-12-29T11:08:17;18.85;;;18.81;;
50417;SDS011;36346;48.280;14.292;2022-12-29T11:10:59;19.83;;;19.77;;
50417;SDS011;36346;48.280;14.292;2022-12-29T11:13:32;23.59;;;23.51;;
50417;SDS011;36346;48.280;14.292;2022-12-29T11:16:06;22.76;;;22.70;;
50417;SDS011;36346;48.280;14.292;2022-12-29T11:19:00;23.83;;;23.73;;
50417;SDS011;36346;48.280;14.292;2022-12-29T11:21:35;24.84;;;24.67;;
50417;SDS011;36346;48.280;14.292;2022-12-29T11:24:28;25.09;;;24.83;;
50417;SDS011;36346;48.280;14.292;2022-12-29T11:27:08;27.14;;;26.89;;
50417;SDS011;36346;48.280;14.292;2022-12-29T11:29:42;26.85;;;26.64;;
50417;SDS011;36346;48.280;14.292;2022-12-29T11:34:55;27.28;;;27.16;;
50417;SDS011;36346;48.280;14.292;2022-12-29T11:37:30;26.61;;;26.51;;
50417;SDS011;36346;48.280;14.292;2022-12-29T11:40:15;24.77;;;24.62;;
50417;SDS011;36346;48.280;14.292;2022-12-29T11:42:55;22.99;;;22.91;;
50417;SDS011;36346;48.280;14.292;2022-12-29T11:45:30;23.12;;;23.11;;
50417;SDS011;36346;48.280;14.292;2022-12-29T11:48:06;22.86;;;22.77;;
50417;SDS011;36346;48.280;14.292;2022-12-29T11:50:37;22.20;;;22.11;;
50417;SDS011;36346;48.280;14.292;2022-12-29T11:53:24;21.84;;;21.76;;
50417;SDS011;36346;48.280;14.292;2022-12-29T11:56:17;21.12;;;21.03;;
50417;SDS011;36346;48.280;14.292;2022-12-29T11:58:51;21.30;;;21.27;;
50417;SDS011;36346;48.280;14.292;2022-12-29T12:01:23;21.16;;;21.14;;
50417;SDS011;36346;48.280;14.292;2022-12-29T12:04:05;21.13;;;21.11;;
50417;SDS011;36346;48.280;14.292;2022-12-29T12:06:44;20.95;;;20.88;;
50417;SDS011;36346;48.280;14.292;2022-12-29T12:09:23;21.04;;;21.00;;
50417;SDS011;36346;48.280;14.292;2022-12-29T12:11:59;24.72;;;24.38;;
50417;SDS011;36346;48.280;14.292;2022-12-29T12:22:59;33.12;;;31.50;;
50417;SDS011;36346;48.280;14.292;2022-12-29T12:25:41;32.41;;;30.97;;
50417;SDS011;36346;48.280;14.292;2022-12-29T12:28:15;32.56;;;31.40;;
50417;SDS011;36346;48.280;14.292;2022-12-29T12:30:50;33.68;;;32.31;;
50417;SDS011;36346;48.280;14.292;2022-12-29T12:33:26;32.46;;;31.16;;
50417;SDS011;36346;48.280;14.292;2022-12-29T12:55:52;36.67;;;36.31;;
50417;SDS011;36346;48.280;14.292;2022-12-29T13:09:24;34.08;;;34.00;;
50417;SDS011;36346;48.280;14.292;2022-12-29T13:15:12;28.83;;;28.75;;
50417;SDS011;36346;48.280;14.292;2022-12-29T13:34:48;13.47;;;13.45;;
50417;SDS011;36346;48.280;14.292;2022-12-29T13:37:31;13.07;;;13.07;;
50417;SDS011;36346;48.280;14.292;2022-12-29T13:40:04;12.46;;;12.44;;
50417;SDS011;36346;48.280;14.292;2022-12-29T13:42:40;11.48;;;11.48;;
50417;SDS011;36346;48.280;14.292;2022-12-29T13:45:14;10.14;;;10.13;;
50417;SDS011;36346;48.280;14.292;2022-12-29T13:47:51;9.16;;;9.16;;
50417;SDS011;36346;48.280;14.292;2022-12-29T13:50:55;8.65;;;8.65;;
50417;SDS011;36346;48.280;14.292;2022-12-29T14:04:26;8.68;;;8.68;;
50417;SDS011;36346;48.280;14.292;2022-12-29T14:07:13;8.57;;;8.54;;
50417;SDS011;36346;48.280;14.292;2022-12-29T14:14:46;8.56;;;8.53;;
50417;SDS011;36346;48.280;14.292;2022-12-29T14:17:16;8.76;;;8.71;;
50417;SDS011;36346;48.280;14.292;2022-12-29T14:19:51;8.21;;;8.21;;
50417;SDS011;36346;48.280;14.292;2022-12-29T14:22:24;8.46;;;8.43;;
50417;SDS011;36346;48.280;14.292;2022-12-29T14:24:59;8.93;;;8.91;;
50417;SDS011;36346;48.280;14.292;2022-12-29T14:29:56;8.44;;;8.44;;
50417;SDS011;36346;48.280;14.292;2022-12-29T14:34:57;8.57;;;8.56;;
50417;SDS011;36346;48.280;14.292;2022-12-29T14:37:31;8.96;;;8.95;;
50417;SDS011;36346;48.280;14.292;2022-12-29T14:42:44;9.19;;;9.18;;
50417;SDS011;36346;48.280;14.292;2022-12-29T14:47:49;9.35;;;9.33;;
50417;SDS011;36346;48.280;14.292;2022-12-29T14:58:14;9.07;;;9.03;;
50417;SDS011;36346;48.280;14.292;2022-12-29T15:00:46;9.76;;;9.73;;
50417;SDS011;36346;48.280;14.292;2022-12-29T15:03:36;10.13;;;10.10;;
50417;SDS011;36346;48.280;14.292;2022-12-29T15:06:14;10.19;;;10.19;;
50417;SDS011;36346;48.280;14.292;2022-12-29T15:08:47;10.42;;;10.42;;
50417;SDS011;36346;48.280;14.292;2022-12-29T15:17:11;10.90;;;10.88;;
50417;SDS011;36346;48.280;14.292;2022-12-29T15:19:52;11.12;;;11.01;;
50417;SDS011;36346;48.280;14.292;2022-12-29T15:22:22;11.40;;;11.32;;
50417;SDS011;36346;48.280;14.292;2022-12-29T15:24:52;11.82;;;11.68;;
50417;SDS011;36346;48.280;14.292;2022-12-29T15:27:22;11.97;;;11.78;;
50417;SDS011;36346;48.280;14.292;2022-12-29T15:29:59;11.53;;;11.38;;
50417;SDS011;36346;48.280;14.292;2022-12-29T15:32:39;12.01;;;11.88;;
50417;SDS011;36346;48.280;14.292;2022-12-29T15:38:13;12.75;;;12.62;;
50417;SDS011;36346;48.280;14.292;2022-12-29T15:40:43;20.36;;;20.12;;
50417;SDS011;36346;48.280;14.292;2022-12-29T15:43:17;21.77;;;21.27;;
50417;SDS011;36346;48.280;14.292;2022-12-29T15:45:51;18.78;;;18.43;;
50417;SDS011;36346;48.280;14.292;2022-12-29T15:48:23;17.60;;;17.38;;
50417;SDS011;36346;48.280;14.292;2022-12-29T15:50:54;16.72;;;16.51;;
50417;SDS011;36346;48.280;14.292;2022-12-29T15:53:23;18.84;;;18.67;;
50417;SDS011;36346;48.280;14.292;2022-12-29T15:56:01;18.16;;;17.85;;
50417;SDS011;36346;48.280;14.292;2022-12-29T15:58:41;15.50;;;15.36;;
50417;SDS011;36346;48.280;14.292;2022-12-29T16:01:45;14.71;;;14.59;;
50417;SDS011;36346;48.280;14.292;2022-12-29T16:04:30;17.38;;;17.29;;
50417;SDS011;36346;48.280;14.292;2022-12-29T16:07:23;17.48;;;17.37;;
50417;SDS011;36346;48.280;14.292;2022-12-29T16:09:55;17.55;;;17.45;;
50417;SDS011;36346;48.280;14.292;2022-12-29T16:12:26;19.04;;;18.97;;
50417;SDS011;36346;48.280;14.292;2022-12-29T16:14:59;21.54;;;21.48;;
50417;SDS011;36346;48.280;14.292;2022-12-29T16:17:32;22.21;;;22.03;;
50417;SDS011;36346;48.280;14.292;2022-12-29T16:20:17;22.45;;;22.20;;
50417;SDS011;36346;48.280;14.292;2022-12-29T16:22:49;36.56;;;35.62;;
50417;SDS011;36346;48.280;14.292;2022-12-29T16:25:27;29.73;;;29.22;;
50417;SDS011;36346;48.280;14.292;2022-12-29T16:27:59;20.71;;;20.42;;
50417;SDS011;36346;48.280;14.292;2022-12-29T16:30:29;17.21;;;17.06;;
50417;SDS011;36346;48.280;14.292;2022-12-29T16:33:01;17.10;;;17.07;;
50417;SDS011;36346;48.280;14.292;2022-12-29T16:35:39;16.27;;;16.18;;
50417;SDS011;36346;48.280;14.292;2022-12-29T16:38:39;16.46;;;16.28;;
50417;SDS011;36346;48.280;14.292;2022-12-29T16:41:08;15.99;;;15.92;;
50417;SDS011;36346;48.280;14.292;2022-12-29T16:43:36;15.60;;;15.57;;
50417;SDS011;36346;48.280;14.292;2022-12-29T16:46:20;15.34;;;15.22;;
50417;SDS011;36346;48.280;14.292;2022-12-29T16:48:55;16.02;;;15.93;;
50417;SDS011;36346;48.280;14.292;2022-12-29T16:51:36;17.18;;;17.15;;
50417;SDS011;36346;48.280;14.292;2022-12-29T16:54:05;16.84;;;16.70;;
50417;SDS011;36346;48.280;14.292;2022-12-29T16:56:35;15.96;;;15.86;;
50417;SDS011;36346;48.280;14.292;2022-12-29T16:59:08;16.10;;;16.03;;
50417;SDS011;36346;48.280;14.292;2022-12-29T17:01:46;20.74;;;20.61;;
50417;SDS011;36346;48.280;14.292;2022-12-29T17:04:14;20.37;;;20.20;;
50417;SDS011;36346;48.280;14.292;2022-12-29T17:06:42;20.60;;;20.50;;
50417;SDS011;36346;48.280;14.292;2022-12-29T17:09:16;20.00;;;19.89;;
50417;SDS011;36346;48.280;14.292;2022-12-29T17:12:17;20.62;;;20.38;;
50417;SDS011;36346;48.280;14.292;2022-12-29T17:15:00;23.10;;;22.97;;
50417;SDS011;36346;48.280;14.292;2022-12-29T17:20:20;25.84;;;25.70;;
50417;SDS011;36346;48.280;14.292;2022-12-29T17:22:51;25.76;;;25.66;;
50417;SDS011;36346;48.280;14.292;2022-12-29T17:25:25;25.99;;;25.98;;
50417;SDS011;36346;48.280;14.292;2022-12-29T17:30:32;25.89;;;25.69;;
50417;SDS011;36346;48.280;14.292;2022-12-29T17:33:09;25.73;;;25.57;;
50417;SDS011;36346;48.280;14.292;2022-12-29T17:36:29;25.12;;;24.98;;
50417;SDS011;36346;48.280;14.292;2022-12-29T17:38:57;23.80;;;23.72;;
50417;SDS011;36346;48.280;14.292;2022-12-29T17:41:33;20.73;;;20.61;;
50417;SDS011;36346;48.280;14.292;2022-12-29T17:44:04;20.45;;;20.34;;
50417;SDS011;36346;48.280;14.292;2022-12-29T17:46:33;23.57;;;23.46;;
50417;SDS011;36346;48.280;14.292;2022-12-29T17:49:01;22.89;;;22.74;;
50417;SDS011;36346;48.280;14.292;2022-12-29T17:51:30;25.12;;;24.85;;
50417;SDS011;36346;48.280;14.292;2022-12-29T17:53:58;26.88;;;26.71;;
50417;SDS011;36346;48.280;14.292;2022-12-29T17:56:31;27.67;;;27.50;;
50417;SDS011;36346;48.280;14.292;2022-12-29T17:58:59;25.16;;;25.04;;